AirNav   Free Bose Alto or Rondo audio sunglasses
 
 511 users online  

M24 Dean Griffin Memorial Airport
Wiggins, Mississippi, USA

GOING TO WIGGINS?


FAA INFORMATION EFFECTIVE 05 NOVEMBER 2020

Location

FAA Identifier: M24
Lat/Long: 30-50-34.8000N 089-09-41.4000W
30-50.580000N 089-09.690000W
30.8430000,-89.1615000
(estimated)
Elevation: 273 ft. / 83.2 m (surveyed)
Variation: 02E (1985)
From city: 1 mile W of WIGGINS, MS
Time zone: UTC -6 (UTC -5 during Daylight Saving Time)
Zip code: 39577

Airport Operations

Airport use: Open to the public
Control tower: no
ARTCC: HOUSTON CENTER
FSS: GREENWOOD FLIGHT SERVICE STATION
NOTAMs facility: GWO (NOTAM-D service available)
Attendance: 0800-1700
Wind indicator: lighted
Segmented circle: no
Lights: ACTVT MIRL RWY 17/35 - CTAF. PAPI RWY 17 & 35 OPRS CONSLY.
Beacon: white-green (lighted land airport)
Operates sunset to sunrise.

Airport Communications

CTAF/UNICOM: 122.8

Nearby radio navigation aids

VOR radial/distance  VOR name  Freq  Var
GPTr349/26.5GULFPORT VORTAC109.0002E
PCUr055/33.9PICAYUNE VOR/DME114.1505E
LBYr160/35.7EATON VORTAC110.6005E
GCVr241/38.0GREENE COUNTY VORTAC115.7005E

 
NDB name  Hdg/Dist  Freq  Var  ID
BOGALUSA094/36.235300WGVB --. ...- -...

Airport Services

Fuel available: 100LL
FUEL AVBL 24/7 WITH CREDIT CARD.
Parking: tiedowns
Airframe service: NONE
Bottled oxygen: NONE
Bulk oxygen: NONE

Runway Information

Runway 17/35

Dimensions: 3500 x 75 ft. / 1067 x 23 m
Surface: asphalt, in fair condition
Weight bearing capacity: 
Single wheel: 20.0
Runway edge lights: medium intensity
RUNWAY 17  RUNWAY 35
Latitude: 30-50.866725N30-50.293587N
Longitude: 089-09.729418W089-09.649293W
Elevation: 273.0 ft.245.3 ft.
Traffic pattern: leftleft
Runway heading: 171 magnetic, 173 true351 magnetic, 353 true
Displaced threshold: 500 ft.no
Markings: basic, in fair conditionbasic, in fair condition
Visual slope indicator: 2-light PAPI on left (3.00 degrees glide path)2-light PAPI on left (3.00 degrees glide path)
Touchdown point: yes, no lightsyes, no lights
Obstructions: 41 ft. tree, 1200 ft. from runway, 150 ft. left of centerline, 24:1 slope to clear
APCH SLP 36:1 TO DSPLCD THR.
62 ft. trees, 1440 ft. from runway, 20:1 slope to clear

Airport Ownership and Management from official FAA records

Ownership: Publicly-owned
Owner: CITY OF WIGGINS-STONE CO
117 FIRST STREET
WIGGINS, MS 39577
Phone 601-928-7221
Manager: DURON HATTEN
P.O. BOX 219
WIGGINS, MS 39577
Phone 601-928-7221

Airport Operational Statistics

Aircraft based on the field: 11
Single engine airplanes: 10
Multi engine airplanes: 1
    
Aircraft operations: avg 35/day *
51% local general aviation
45% transient general aviation
4% military
* for 12-month period ending 22 May 2019

Additional Remarks

FOR CD CTC GULFPORT APCH AT 228-265-6151, WHEN APCH CLSD CTC HOUSTON ARTCC AT 281-230-5622.

Instrument Procedures

There are no published instrument procedures at M24.

Some nearby airports with instrument procedures:

M13 - Poplarville-Pearl River County Airport (18 nm W)
KHBG - Hattiesburg Bobby L Chain Municipal Airport (26 nm N)
KGPT - Gulfport-Biloxi International Airport (27 nm S)
KBIX - Keesler Air Force Base (29 nm SE)
KHSA - Stennis International Airport (32 nm SW)
 
Loc | Ops | Rwys | IFR | FBO | Links
Com | Nav | Svcs | Stats | Notes

Continental Services
AirBoss

 
Area around M24 (Dean Griffin Memorial Airport)
 
Road maps at: MapQuest Bing Google
 
Aerial photo
No photo
 
Sectional chart

 
Airport distance calculator
Flying to Dean Griffin Memorial Airport? Find the distance to fly.

From to M24

Sunrise and sunset
Times for 29-Nov-2020
 Local
(UTC-6)
 Zulu
(UTC)
Morning civil twilight06:1112:11
Sunrise06:3712:37
Sunset16:5422:54
Evening civil twilight17:2023:20

Current date and time
Zulu (UTC)  29-Nov-2020 12:09:22
Local (UTC-6)  29-Nov-2020 06:09:22
 
METAR
KHBG 
26nm N 
291153Z AUTO 04003KT 6SM -RA BR BKN041 OVC090 12/11 A3001 RMK AO2 SLP162 P0002 60006 70007 T01220111 10133 20122 56005
KGPT 
26nm S 
291153Z 09007KT 7SM -RA FEW070 BKN095 BKN110 15/14 A2995 RMK AO2 SLP141 P0008 60014 70015 T01500139 10156 20150 56014
KBIX 
29nm SE 
291156Z AUTO 08008KT 10SM -RA SCT028 15/15 A2996 RMK AO2 SLP148 P0006 60010 70011 T01510145 10157 20149 55013
KHSA 
32nm SW 
290150Z 01006KT 7SM OVC009 16/14 A3007
KMJD 
33nm SW 
291155Z AUTO 00000KT 7SM SCT037 BKN055 OVC110 13/13 A2995 RMK AO2
KBXA 
36nm W 
291155Z AUTO 05006KT 5SM BKN003 OVC015 14/13 A2998 RMK AO2 P0007 60012 70015 T01420129 10152 20142
KPIB 
38nm N 
291156Z AUTO 02005KT 6SM -RA BR FEW017 BKN055 OVC065 12/12 A3003 RMK AO2 SLP168 P0006 60008 70009 T01170117 10122 20117 55004
KLUL 
38nm N 
291155Z AUTO 00000KT 10SM -RA OVC100 11/10 A3002 RMK A02 P0001 T01140098 10124 20113 60001 70001
KPQL 
40nm SE 
291153Z AUTO 04004KT 7SM RA FEW013 OVC080 17/14 A2999 RMK AO2 SLP155 P0006 60006 70007 T01670144 10172 20167 53002
K0R0 
43nm NW 
291155Z AUTO 04005KT 3SM -RA BR BKN006 BKN034 OVC075 12/11 A3002 RMK AO2 P0006
TAF
KHBG 
26nm N 
291122Z 2912/3012 09005KT 6SM -RA SCT006 BKN040 OVC090 FM291400 05004KT 4SM -RA BR OVC007 FM300100 32015G22KT 6SM BR OVC007 FM300400 32014G21KT P6SM OVC015
KGPT 
26nm S 
291121Z 2912/3012 03005KT 5SM RA BR OVC013 FM291600 09009KT 3SM SHRA BR OVC008 FM291900 12012G19KT 3SM SHRA VCTS OVC008CB FM292300 25013G22KT P6SM OVC008 FM300900 32014G28KT P6SM SCT025
NOTAMs
Click for the latest NOTAMs
NOTAMs are issued by the DoD/FAA and will open in a separate window not controlled by AirNav.

 

 
 

FBO, Fuel Providers, and Aircraft Ground Support

  
 Business Name 
 
 Contact 
 
 Services / Description 
 
Fuel Prices
 
Comments
  
Dean Griffin Memorial Airport 601-928-6495
no information available

If you are affiliated with Dean Griffin Memorial Airport and would like to show here your services, contact info, web link, logo, and more, click here
100LL
SS $3.10 
 Updated 25-Nov-2020
 
   write
SS=Self service
Update Fuel Prices
 

Would you like to see your business listed on this page?

 If your business provides an interesting product or service to pilots, flight crews, aircraft, or users of the Dean Griffin Memorial Airport, you should consider listing it here.  To start the listing process, click on the button below
 
Add a business
 

Other Pages about Dean Griffin Memorial Airport

Update a link
 
Copyright © AirNav, LLC. All rights reserved. Privacy Policy  Contact